Green Gables, Louisiana
Current Conditions -  °F | °C
As of 4:53 PM on Tuesday 25 Nov 2014 (Local Time) from KESF Reporting Station
Clear Clear  
Wind Chill: 50°   Ceiling: Unl
Heat Index: 50°   Visibility: 10mi
Dew Point: 40°   Wind: 0mph
Humidity: 68%   Direction: NA
Pressure: 30.21"   Gusts: NA
Location:  31.3398°N, 92.3739°W
Report Text: KESF 252253Z AUTO 00000KT 10SM CLR 10/04 A3021 RMK AO2 SLP230 T01000044
Loading
Personal Weather Stations






























Interactive Weather Map New forecast layout! Learn more

10-Day Weather Forecast

Advertisements
Track Severe Weather on mobile